createdAt,value
2019-04-30T00:02:35.918Z,20.62
2019-04-30T00:05:00.839Z,19.00
2019-04-30T00:07:28.176Z,21.02
2019-04-30T00:09:57.607Z,21.95
2019-04-30T00:12:25.822Z,19.32
2019-04-30T00:14:55.024Z,20.65
2019-04-30T00:17:22.615Z,20.70
2019-04-30T00:19:50.512Z,21.55
2019-04-30T00:22:31.093Z,20.52
2019-04-30T00:24:50.001Z,22.93
2019-04-30T00:27:21.114Z,20.17
2019-04-30T00:29:47.762Z,19.75
2019-04-30T00:32:15.969Z,19.05
2019-04-30T00:34:43.552Z,19.82
2019-04-30T00:37:13.959Z,21.23
2019-04-30T00:39:44.397Z,18.25
2019-04-30T00:42:12.259Z,19.35
2019-04-30T00:44:39.812Z,18.40
2019-04-30T00:47:08.267Z,18.52
2019-04-30T00:49:35.946Z,18.75
2019-04-30T00:52:05.143Z,17.37
2019-04-30T00:54:32.878Z,15.58
2019-04-30T00:57:04.455Z,16.02
2019-04-30T00:59:29.526Z,15.08
2019-04-30T01:02:20.126Z,14.90
2019-04-30T01:04:49.787Z,14.98
2019-04-30T01:07:17.258Z,15.25
2019-04-30T01:09:49.567Z,15.83
2019-04-30T01:12:17.452Z,15.83
2019-04-30T01:14:43.536Z,16.10
2019-04-30T01:17:12.366Z,14.83
2019-04-30T01:19:40.152Z,16.20
2019-04-30T01:22:09.102Z,15.88
2019-04-30T01:24:36.510Z,15.72
2019-04-30T01:27:06.942Z,16.67
2019-04-30T01:29:40.944Z,16.50
2019-04-30T01:32:03.436Z,16.17
2019-04-30T01:34:31.195Z,14.40
2019-04-30T01:36:58.987Z,16.93
2019-04-30T01:39:28.472Z,15.78
2019-04-30T01:41:55.780Z,13.43
2019-04-30T01:44:24.872Z,14.95
2019-04-30T01:46:52.134Z,15.53
2019-04-30T01:49:20.277Z,15.23
2019-04-30T01:51:52.874Z,16.65
2019-04-30T01:54:24.039Z,15.60
2019-04-30T01:56:49.908Z,14.53
2019-04-30T01:59:19.440Z,14.47
2019-04-30T02:01:49.183Z,13.55
2019-04-30T02:04:16.610Z,16.20
2019-04-30T02:06:44.056Z,15.30
2019-04-30T02:09:11.530Z,15.38
2019-04-30T02:11:38.944Z,15.30
2019-04-30T02:14:06.386Z,14.68
2019-04-30T02:16:33.876Z,15.55
2019-04-30T02:19:01.247Z,15.65
2019-04-30T02:21:30.339Z,15.45
2019-04-30T02:23:58.838Z,15.88
2019-04-30T02:26:28.640Z,16.15
2019-04-30T02:28:56.146Z,16.55
2019-04-30T02:31:23.382Z,16.75
2019-04-30T02:34:04.829Z,17.65
2019-04-30T02:36:32.379Z,18.00
2019-04-30T02:39:02.699Z,18.25
2019-04-30T02:41:30.767Z,17.65
2019-04-30T02:43:59.836Z,17.55
2019-04-30T02:46:32.379Z,15.72
2019-04-30T02:49:00.468Z,16.90
2019-04-30T02:51:31.314Z,16.52
2019-04-30T02:54:10.202Z,15.30
2019-04-30T02:56:39.985Z,14.35
2019-04-30T02:59:09.893Z,14.68
2019-04-30T03:01:36.977Z,14.38
2019-04-30T03:04:04.454Z,14.13
2019-04-30T03:06:31.971Z,12.37
2019-04-30T03:09:01.057Z,11.88
2019-04-30T03:11:30.114Z,11.93
2019-04-30T03:13:59.252Z,11.63
2019-04-30T03:16:40.091Z,12.18
2019-04-30T03:19:09.949Z,11.73
2019-04-30T03:21:45.323Z,12.47
2019-04-30T03:24:14.058Z,12.13
2019-04-30T03:26:41.534Z,12.00
2019-04-30T03:29:11.363Z,11.78
2019-04-30T03:31:44.407Z,12.23
2019-04-30T03:34:16.689Z,11.85
2019-04-30T03:36:36.834Z,12.18
2019-04-30T03:39:05.484Z,11.75
2019-04-30T03:41:33.501Z,10.38
2019-04-30T03:44:16.420Z,12.15
2019-04-30T03:46:31.558Z,11.08
2019-04-30T03:49:00.209Z,10.80
2019-04-30T03:51:30.268Z,11.38
2019-04-30T03:56:29.769Z,11.55
2019-04-30T03:58:56.376Z,11.60
2019-04-30T04:01:39.931Z,11.90
2019-04-30T04:04:10.021Z,11.25
2019-04-30T04:06:54.604Z,11.53
2019-04-30T04:09:26.787Z,10.68
2019-04-30T04:11:54.117Z,10.95
2019-04-30T04:14:21.642Z,9.95
2019-04-30T04:16:50.791Z,10.50
2019-04-30T04:19:19.645Z,10.45
2019-04-30T04:21:47.130Z,10.75
2019-04-30T04:24:14.749Z,10.18
2019-04-30T04:26:43.851Z,11.12
2019-04-30T04:29:12.499Z,11.35
2019-04-30T04:31:40.268Z,11.83
2019-04-30T04:34:09.290Z,11.50
2019-04-30T04:36:39.920Z,12.10
2019-04-30T04:39:09.817Z,11.55
2019-04-30T04:41:39.736Z,12.70
2019-04-30T04:44:06.534Z,11.83
2019-04-30T04:46:34.119Z,11.43
2019-04-30T04:49:01.534Z,12.65
2019-04-30T04:51:38.089Z,11.80
2019-04-30T04:54:00.117Z,11.75
2019-04-30T04:56:30.249Z,11.68
2019-04-30T04:58:57.079Z,11.93
2019-04-30T05:01:24.643Z,12.98
2019-04-30T05:03:53.112Z,13.10
2019-04-30T05:06:21.764Z,12.82
2019-04-30T05:08:50.154Z,12.75
2019-04-30T05:11:19.230Z,12.55
2019-04-30T05:13:46.655Z,13.72
2019-04-30T05:16:14.052Z,13.48
2019-04-30T05:18:41.426Z,13.80
2019-04-30T05:21:09.043Z,14.15
2019-04-30T05:23:36.533Z,14.40
2019-04-30T05:26:03.904Z,14.93
2019-04-30T05:28:31.374Z,14.87
2019-04-30T05:30:59.404Z,13.72
2019-04-30T05:33:28.540Z,13.45
2019-04-30T05:35:56.066Z,14.13
2019-04-30T05:38:23.406Z,13.95
2019-04-30T05:40:51.070Z,21.35
2019-04-30T05:43:19.195Z,13.43
2019-04-30T05:45:48.984Z,13.10
2019-04-30T05:48:18.447Z,29.70
2019-04-30T05:50:45.934Z,18.62
2019-04-30T05:53:13.438Z,12.58
2019-04-30T05:55:41.460Z,11.95
2019-04-30T05:58:09.389Z,11.10
2019-04-30T06:00:39.773Z,10.80
2019-04-30T06:03:06.887Z,11.90
2019-04-30T06:05:34.596Z,27.82
2019-04-30T06:08:02.168Z,17.17
2019-04-30T06:10:34.806Z,17.17
2019-04-30T06:13:10.378Z,24.67
2019-04-30T06:15:40.178Z,17.77
2019-04-30T06:18:13.459Z,11.50
2019-04-30T06:20:38.641Z,11.75
2019-04-30T06:23:06.880Z,10.50
2019-04-30T06:25:52.893Z,10.55
2019-04-30T06:28:04.399Z,11.88
2019-04-30T06:30:32.696Z,11.97
2019-04-30T06:33:00.592Z,11.78
2019-04-30T06:35:29.368Z,12.28
2019-04-30T06:37:58.985Z,19.27
2019-04-30T06:40:29.139Z,14.33
2019-04-30T06:43:00.457Z,11.73
2019-04-30T06:47:59.126Z,15.10
2019-04-30T06:52:56.835Z,15.35
2019-04-30T06:55:23.140Z,13.48
2019-04-30T06:57:50.533Z,16.73
2019-04-30T07:00:20.679Z,18.65
2019-04-30T07:02:49.428Z,14.35
2019-04-30T07:05:18.620Z,10.03
2019-04-30T07:08:09.244Z,9.35
2019-04-30T07:10:35.247Z,7.95
2019-04-30T07:13:04.492Z,6.78
2019-04-30T07:15:32.120Z,6.90
2019-04-30T07:18:00.530Z,6.25
2019-04-30T07:20:29.128Z,7.35
2019-04-30T07:23:02.221Z,6.12
2019-04-30T07:25:26.087Z,6.35
2019-04-30T07:27:53.436Z,6.95
2019-04-30T07:30:21.028Z,7.10
2019-04-30T07:32:48.793Z,6.70
2019-04-30T07:35:16.442Z,6.40
2019-04-30T07:37:43.716Z,6.45
2019-04-30T07:40:11.459Z,6.85
2019-04-30T07:42:44.613Z,7.30
2019-04-30T07:45:09.633Z,8.25
2019-04-30T07:47:39.230Z,11.73
2019-04-30T07:50:10.786Z,18.40
2019-04-30T07:52:55.395Z,23.57
2019-04-30T07:55:09.645Z,25.27
2019-04-30T07:57:36.706Z,25.92
2019-04-30T08:00:05.427Z,23.77
2019-04-30T08:02:39.601Z,24.52
2019-04-30T08:05:10.544Z,25.43
2019-04-30T08:07:39.156Z,25.02
2019-04-30T08:10:08.797Z,26.17
2019-04-30T08:12:40.664Z,26.50
2019-04-30T08:15:09.503Z,25.43
2019-04-30T08:17:36.677Z,21.15
2019-04-30T08:20:05.577Z,19.55
2019-04-30T08:22:33.216Z,18.52
2019-04-30T08:25:00.793Z,21.40
2019-04-30T08:27:29.623Z,21.17
2019-04-30T08:29:59.102Z,22.10
2019-04-30T08:32:28.784Z,21.37
2019-04-30T08:34:56.408Z,20.77
2019-04-30T08:37:23.849Z,20.30
2019-04-30T08:39:51.418Z,19.42
2019-04-30T08:42:28.993Z,19.98
2019-04-30T08:44:48.555Z,21.87
2019-04-30T08:47:16.295Z,19.70
2019-04-30T08:49:44.297Z,20.77
2019-04-30T08:52:12.118Z,20.30
2019-04-30T08:54:39.744Z,22.45
2019-04-30T08:57:08.616Z,24.07
2019-04-30T08:59:35.908Z,25.10
2019-04-30T09:02:15.227Z,24.40
2019-04-30T09:04:34.961Z,24.43
2019-04-30T09:07:02.546Z,24.98
2019-04-30T09:09:30.376Z,29.60
2019-04-30T09:11:59.196Z,30.52
2019-04-30T09:14:27.102Z,31.45
2019-04-30T09:31:43.082Z,17.00
2019-04-30T09:34:17.567Z,20.40
2019-04-30T09:36:45.774Z,22.30
2019-04-30T09:39:16.212Z,22.95
2019-04-30T09:41:46.636Z,22.37
2019-04-30T09:44:17.232Z,21.82
2019-04-30T09:46:48.944Z,22.52
2019-04-30T09:49:21.047Z,21.90
2019-04-30T09:51:52.071Z,22.32
2019-04-30T09:54:22.974Z,20.52
2019-04-30T09:56:53.699Z,19.65
2019-04-30T09:59:24.246Z,19.32
2019-04-30T10:04:29.939Z,21.68
2019-04-30T10:07:00.780Z,21.55
2019-04-30T10:11:55.882Z,24.18
2019-04-30T10:14:26.612Z,22.65
2019-04-30T10:16:59.607Z,20.25
2019-04-30T10:19:30.049Z,20.50
2019-04-30T10:22:00.605Z,21.50
2019-04-30T10:24:31.261Z,21.05
2019-04-30T10:27:03.260Z,20.30
2019-04-30T10:29:33.810Z,24.63
2019-04-30T10:32:04.338Z,24.50
2019-04-30T10:34:34.864Z,22.70
2019-04-30T10:37:05.574Z,22.40
2019-04-30T10:39:38.769Z,22.75
2019-04-30T10:42:08.799Z,24.57
2019-04-30T10:44:39.437Z,24.52
2019-04-30T10:47:10.071Z,26.85
2019-04-30T10:49:40.988Z,26.87
2019-04-30T10:52:11.618Z,25.82
2019-04-30T10:54:42.142Z,27.00
2019-04-30T10:57:12.695Z,26.75
2019-04-30T10:59:43.323Z,26.65
2019-04-30T11:02:14.031Z,20.30
2019-04-30T11:04:44.534Z,19.55
2019-04-30T11:07:14.968Z,17.52
2019-04-30T11:09:45.552Z,16.95
2019-04-30T11:12:15.970Z,15.70
2019-04-30T11:14:46.484Z,15.98
2019-04-30T11:17:17.057Z,15.78
2019-04-30T11:19:49.278Z,16.82
2019-04-30T11:22:20.205Z,18.17
2019-04-30T11:24:59.144Z,21.05
2019-04-30T11:27:23.495Z,25.70
2019-04-30T11:30:00.623Z,33.88
2019-04-30T11:32:26.570Z,21.77
2019-04-30T11:34:57.152Z,21.20
2019-04-30T11:37:27.633Z,22.07
2019-04-30T11:39:58.053Z,22.13
2019-04-30T11:42:28.508Z,26.50
2019-04-30T11:44:59.025Z,27.90
2019-04-30T11:47:31.613Z,24.77
2019-04-30T11:50:02.355Z,23.52
2019-04-30T11:52:32.946Z,24.45
2019-04-30T11:55:03.525Z,25.92
2019-04-30T11:57:33.954Z,24.82
2019-04-30T12:00:08.520Z,25.80
2019-04-30T12:02:41.856Z,24.50
2019-04-30T12:05:15.244Z,25.20
2019-04-30T12:07:53.556Z,25.62
2019-04-30T12:10:31.844Z,26.42
2019-04-30T12:13:02.264Z,25.45
2019-04-30T12:15:32.970Z,23.77
2019-04-30T12:18:03.878Z,23.42
2019-04-30T12:20:34.420Z,21.85
2019-04-30T12:23:04.865Z,22.80
2019-04-30T12:25:35.453Z,21.52
2019-04-30T12:28:06.029Z,20.88
2019-04-30T12:30:39.042Z,21.85
2019-04-30T12:33:09.110Z,24.07
2019-04-30T12:35:39.642Z,25.95
2019-04-30T12:38:10.165Z,24.77
2019-04-30T12:40:40.725Z,26.02
2019-04-30T12:43:11.158Z,24.35
2019-04-30T12:45:41.745Z,23.57
2019-04-30T12:48:20.019Z,24.85
2019-04-30T12:50:50.443Z,25.17
2019-04-30T12:53:38.165Z,26.97
2019-04-30T12:56:10.171Z,25.92
2019-04-30T12:58:40.538Z,26.48
2019-04-30T13:01:12.199Z,22.40
2019-04-30T13:05:27.246Z,20.40
2019-04-30T13:08:00.601Z,21.73
2019-04-30T13:10:33.556Z,20.88
2019-04-30T13:13:06.693Z,21.52
2019-04-30T13:15:39.048Z,22.17
2019-04-30T13:18:10.961Z,22.98
2019-04-30T13:20:43.294Z,22.82
2019-04-30T13:23:15.193Z,23.70
2019-04-30T13:25:51.136Z,22.65
2019-04-30T13:28:22.418Z,23.83
2019-04-30T13:30:55.055Z,24.15
2019-04-30T13:33:39.296Z,23.57
2019-04-30T13:36:11.134Z,21.62
2019-04-30T13:38:52.287Z,23.62
2019-04-30T13:41:34.879Z,25.72
2019-04-30T13:44:09.685Z,27.70
2019-04-30T13:46:41.803Z,28.45
2019-04-30T13:49:13.859Z,27.37
2019-04-30T13:51:45.668Z,27.77
2019-04-30T13:54:18.019Z,31.15
2019-04-30T13:56:50.040Z,31.42
2019-04-30T13:59:22.283Z,31.97
2019-04-30T14:01:54.489Z,30.15
2019-04-30T14:04:28.156Z,30.80
2019-04-30T14:06:59.723Z,28.17
2019-04-30T14:09:33.320Z,25.55
2019-04-30T14:12:05.396Z,25.90
2019-04-30T14:14:39.554Z,28.07
2019-04-30T14:17:11.527Z,29.50
2019-04-30T14:19:43.404Z,32.80
2019-04-30T14:22:15.427Z,35.38
2019-04-30T14:24:47.281Z,35.68
2019-04-30T14:27:19.216Z,32.65
2019-04-30T14:29:51.189Z,29.48
2019-04-30T14:32:23.132Z,26.17
2019-04-30T14:34:54.867Z,27.15
2019-04-30T14:37:26.774Z,24.92
2019-04-30T14:39:59.480Z,22.95
2019-04-30T14:42:34.178Z,21.48
2019-04-30T14:45:11.946Z,20.80
2019-04-30T14:47:52.606Z,27.37
2019-04-30T14:50:28.513Z,22.35
2019-04-30T14:53:04.360Z,20.92
2019-04-30T14:55:47.268Z,20.57
2019-04-30T14:58:21.067Z,21.05
2019-04-30T15:01:00.781Z,20.90
2019-04-30T15:03:34.444Z,20.08
2019-04-30T15:06:06.341Z,20.90
2019-04-30T15:08:39.367Z,20.50
2019-04-30T15:11:11.813Z,20.80
2019-04-30T15:13:44.019Z,21.82
2019-04-30T15:16:17.083Z,23.10
2019-04-30T15:18:49.308Z,21.97
2019-04-30T15:21:21.325Z,21.05
2019-04-30T15:23:58.604Z,22.37
2019-04-30T15:26:28.837Z,20.68
2019-04-30T15:29:01.021Z,20.70
2019-04-30T15:31:32.932Z,20.20
2019-04-30T15:34:06.747Z,21.35
2019-04-30T15:36:39.245Z,21.37
2019-04-30T15:39:12.760Z,25.27
2019-04-30T15:41:44.643Z,23.73
2019-04-30T15:44:16.786Z,25.60
2019-04-30T15:46:48.770Z,24.12
2019-04-30T15:49:20.890Z,24.87
2019-04-30T15:51:52.898Z,25.35
2019-04-30T15:54:24.963Z,25.90
2019-04-30T15:57:00.246Z,25.30
2019-04-30T15:59:32.956Z,24.23
2019-04-30T16:02:18.859Z,26.95
2019-04-30T16:04:59.856Z,26.12
2019-04-30T16:07:31.776Z,26.45
2019-04-30T16:10:08.880Z,29.25
2019-04-30T16:12:45.045Z,27.35
2019-04-30T16:15:18.556Z,28.17
2019-04-30T16:17:54.820Z,28.32
2019-04-30T16:20:29.904Z,29.80
2019-04-30T16:23:00.431Z,29.50
2019-04-30T16:25:32.577Z,28.95
2019-04-30T16:28:04.629Z,27.85
2019-04-30T16:30:36.618Z,26.97
2019-04-30T16:33:09.498Z,26.97
2019-04-30T16:35:41.594Z,27.13
2019-04-30T16:38:13.485Z,27.75
2019-04-30T16:40:45.364Z,26.42
2019-04-30T16:43:18.653Z,26.07
2019-04-30T16:45:50.841Z,27.62
2019-04-30T16:48:22.686Z,27.90
2019-04-30T16:50:54.873Z,28.65
2019-04-30T16:53:26.755Z,28.77
2019-04-30T16:55:58.736Z,28.98
2019-04-30T16:58:32.391Z,29.85
2019-04-30T17:01:05.413Z,30.88
2019-04-30T17:03:39.369Z,29.12
2019-04-30T17:06:12.941Z,28.10
2019-04-30T17:08:46.487Z,28.98
2019-04-30T17:11:36.162Z,27.90
2019-04-30T17:14:09.805Z,29.42
2019-04-30T17:16:43.262Z,30.80
2019-04-30T17:19:15.199Z,29.27
2019-04-30T17:21:47.488Z,29.48
2019-04-30T17:24:19.581Z,34.30
2019-04-30T17:26:51.940Z,31.40
2019-04-30T17:29:23.827Z,49.00
2019-04-30T17:31:55.709Z,39.18
2019-04-30T17:34:28.886Z,31.02
2019-04-30T17:37:01.487Z,30.10
2019-04-30T17:39:33.659Z,31.55
2019-04-30T17:42:05.491Z,32.93
2019-04-30T17:44:37.418Z,34.83
2019-04-30T17:47:09.542Z,32.88
2019-04-30T17:49:41.590Z,32.95
2019-04-30T17:52:13.672Z,31.95
2019-04-30T17:54:45.752Z,33.00
2019-04-30T17:57:29.776Z,32.35
2019-04-30T17:59:52.363Z,34.15
2019-04-30T18:02:26.164Z,33.13
2019-04-30T18:04:58.177Z,32.53
2019-04-30T18:07:30.325Z,34.45
2019-04-30T18:10:02.294Z,32.58
2019-04-30T18:12:35.657Z,36.50
2019-04-30T18:15:15.121Z,34.18
2019-04-30T18:17:54.597Z,35.05
2019-04-30T18:20:29.319Z,36.48
2019-04-30T18:23:19.093Z,34.65
2019-04-30T18:25:54.281Z,34.53
2019-04-30T18:28:26.433Z,35.68
2019-04-30T18:30:59.118Z,33.98
2019-04-30T18:33:31.286Z,46.70
2019-04-30T18:36:03.465Z,39.55
2019-04-30T18:38:35.464Z,36.73
2019-04-30T18:41:09.468Z,33.92
2019-04-30T18:43:41.383Z,33.95
2019-04-30T18:46:13.652Z,35.88
2019-04-30T18:48:45.821Z,34.70
2019-04-30T18:51:33.310Z,33.23
2019-04-30T18:53:51.646Z,33.08
2019-04-30T18:56:23.519Z,34.50
2019-04-30T18:58:55.582Z,33.83
2019-04-30T19:01:27.491Z,33.83
2019-04-30T19:04:01.148Z,34.27
2019-04-30T19:06:33.415Z,37.10
2019-04-30T19:09:24.591Z,33.75
2019-04-30T19:12:04.205Z,34.45
2019-04-30T19:14:35.940Z,35.08
2019-04-30T19:17:19.478Z,36.85
2019-04-30T19:20:05.082Z,37.60
2019-04-30T19:22:37.228Z,39.67
2019-04-30T19:25:09.298Z,36.73
2019-04-30T19:27:41.514Z,37.03
2019-04-30T19:30:13.916Z,38.28
2019-04-30T19:32:46.100Z,39.88
2019-04-30T19:35:18.770Z,40.65
2019-04-30T19:37:51.145Z,40.63
2019-04-30T19:40:23.050Z,39.70
2019-04-30T19:42:55.570Z,38.63
2019-04-30T19:45:27.955Z,37.78
2019-04-30T19:48:00.422Z,38.23
2019-04-30T19:50:32.252Z,40.45
2019-04-30T19:53:05.381Z,39.33
2019-04-30T19:55:39.407Z,38.92
2019-04-30T19:58:25.070Z,38.45
2019-04-30T20:00:46.168Z,34.18
2019-04-30T20:03:19.767Z,37.80
2019-04-30T20:05:51.805Z,35.98
2019-04-30T20:08:23.897Z,39.05
2019-04-30T20:10:55.872Z,36.30
2019-04-30T20:13:33.869Z,36.85
2019-04-30T20:16:01.412Z,36.13
2019-04-30T20:18:33.482Z,38.42
2019-04-30T20:21:09.086Z,36.55
2019-04-30T20:23:40.806Z,35.90
2019-04-30T20:26:12.706Z,34.40
2019-04-30T20:28:44.659Z,36.28
2019-04-30T20:31:18.919Z,33.35
2019-04-30T20:33:50.569Z,33.85
2019-04-30T20:36:24.129Z,34.00
2019-04-30T20:39:00.615Z,33.10
2019-04-30T20:41:33.627Z,32.98
2019-04-30T20:44:05.806Z,35.63
2019-04-30T20:46:39.324Z,35.20
2019-04-30T20:49:11.326Z,33.20
2019-04-30T20:51:53.524Z,37.15
2019-04-30T20:54:18.908Z,33.08
2019-04-30T20:56:51.038Z,31.50
2019-04-30T20:59:23.356Z,34.13
2019-04-30T21:01:55.358Z,33.25
2019-04-30T21:04:27.409Z,33.18
2019-04-30T21:06:59.543Z,32.30
2019-04-30T21:09:31.760Z,34.08
2019-04-30T21:12:03.643Z,32.55
2019-04-30T21:14:35.548Z,30.92
2019-04-30T21:17:07.378Z,32.45
2019-04-30T21:19:39.402Z,31.68
2019-04-30T21:22:11.510Z,30.77
2019-04-30T21:24:43.764Z,30.62
2019-04-30T21:27:15.887Z,29.95
2019-04-30T21:29:49.322Z,32.30
2019-04-30T21:32:30.018Z,31.70
2019-04-30T21:35:15.443Z,29.52
2019-04-30T21:37:47.487Z,30.15
2019-04-30T21:40:19.626Z,30.85
2019-04-30T21:42:51.586Z,30.62
2019-04-30T21:45:23.897Z,30.97
2019-04-30T21:47:56.673Z,30.82
2019-04-30T21:50:29.670Z,29.52
2019-04-30T21:53:01.549Z,31.07
2019-04-30T21:55:33.575Z,31.85
2019-04-30T21:58:05.407Z,29.20
2019-04-30T22:00:40.688Z,30.37
2019-04-30T22:03:12.680Z,32.33
2019-04-30T22:05:44.836Z,31.87
2019-04-30T22:08:18.802Z,28.55
2019-04-30T22:10:50.603Z,29.72
2019-04-30T22:13:22.765Z,30.52
2019-04-30T22:15:54.823Z,32.10
2019-04-30T22:18:26.550Z,32.23
2019-04-30T22:20:58.688Z,32.05
2019-04-30T22:23:30.440Z,31.73
2019-04-30T22:26:02.255Z,35.20
2019-04-30T22:28:34.013Z,36.23
2019-04-30T22:31:05.956Z,34.73
2019-04-30T22:33:39.210Z,36.42
2019-04-30T22:36:29.016Z,33.83
2019-04-30T22:39:12.018Z,34.92
2019-04-30T22:41:44.334Z,33.75
2019-04-30T22:44:16.384Z,32.78
2019-04-30T22:46:49.249Z,29.45
2019-04-30T22:49:21.112Z,30.80
2019-04-30T22:51:52.950Z,30.92
2019-04-30T22:54:26.959Z,29.72
2019-04-30T22:56:58.931Z,27.00
2019-04-30T22:59:30.819Z,25.43
2019-04-30T23:02:13.345Z,28.47
2019-04-30T23:04:49.773Z,27.40
2019-04-30T23:07:21.794Z,27.52
2019-04-30T23:09:53.754Z,27.93
2019-04-30T23:12:26.542Z,27.58
2019-04-30T23:14:58.372Z,26.30
2019-04-30T23:17:30.329Z,26.37
2019-04-30T23:20:02.175Z,26.75
2019-04-30T23:22:34.121Z,28.20
2019-04-30T23:25:08.086Z,27.98
2019-04-30T23:27:40.049Z,26.27
2019-04-30T23:30:12.684Z,26.07
2019-04-30T23:32:44.579Z,28.00
2019-04-30T23:35:16.471Z,27.52
2019-04-30T23:37:48.359Z,26.15
2019-04-30T23:40:51.926Z,25.40
2019-04-30T23:43:24.539Z,25.92
2019-04-30T23:45:56.493Z,25.27
2019-04-30T23:48:28.435Z,26.95
2019-04-30T23:51:00.403Z,26.65
2019-04-30T23:53:32.900Z,25.43
2019-04-30T23:56:04.839Z,26.12
2019-04-30T23:58:36.637Z,26.75
